Skip Navigation Links
NOAA logo - Click to go to the NOAA homepage
NOAA's National Weather Service
Alaska Aviation Weather Unit
  NWS logo - Click to go to the NWS homepage
Left Navbar Graphic     21 AKDT = 05 GMT

   
NOAA is celebrating 200 years of science, service, and stewardship. Visit the NOAA 200th celebration Web site to learn more.
USA.gov is the U.S. Government's official Web portal to all Federal, state and local government Web resources and services.
Facebook
NWS on Facebook

Important Change Regarding the AAWU Web Presence

 

Over the last several months, the AAWU has been working to navigate its webpages to a nationally supported server. Security, as well as other needs, have necessitated the change.  In the process, we have made an effort to enhance the functionality of our website, as well as some of our products. As of June 27, 2017, aawu.arh.noaa.gov will be discontinued. The new AAWU web address is weather.gov/aawu. It is now live and will run in-parallel with the old site until it is discontinued. Please send any feedback or questions regarding the new webpages to nws.ar.aawu.webauthors@noaa.gov.  Thank you for your patience during this time of transition.
AAWU Home :: Display TAF Add Bookmark
SPECI PAGM 252329Z AUTO 13017KT 10SM -RA OVC014 08/08 A2981 RMK AO2
     P0000=

METAR PAGM 252356Z AUTO 14015KT 10SM -RA OVC008 08/08 A2980 RMK AO2 CIG
     006V012 SLP098 P0000 60003 T00830078 10083 20072 56009=

SPECI PAGM 260043Z AUTO 14014KT 10SM -RA SCT007 OVC010 09/08 A2979 RMK
     AO2 P0000=

METAR PAGM 260056Z AUTO 14012KT 10SM -RA FEW007 BKN010 OVC027 09/08
     A2978 RMK AO2 SLP091 P0000 T00890078=

SPECI PAGM 260103Z AUTO 14013KT 10SM -RA SCT010 OVC027 09/08 A2978 RMK
     AO2 P0000=

SPECI PAGM 260134Z AUTO 13012KT 10SM -RA SCT010 BKN031 OVC047 09/08
 A2977 RMK AO2 P0000=

SPECI PAGM 260141Z AUTO 14016KT 10SM FEW010 BKN027 OVC045 09/08 A2977
     RMK AO2 RAE41 P0000=

METAR PAGM 260156Z AUTO 14014KT 10SM -RA FEW010 BKN020 OVC026 09/08
     A2976 RMK AO2 SLP085 P0000 T00890078=

SPECI PAGM 260228Z AUTO 14012KT 10SM FEW015 SCT047 BKN070 09/07 A2976
     RMK AO2 RAE16 P0000=

PAGM 260254Z AUTO 14014KT 10SM -RA BKN017 BKN032 OVC090 09/07
     A2975 RMK AO2 RAE16B44 P0000=

METAR PAGM 260256Z AUTO 14014KT 10SM -RA BKN017 BKN044 OVC090 09/07
     A2975 RMK AO2 RAE16B44 SLP080 P0000 60000 T00890072 55011=

SPECI PAGM 260330Z AUTO 13013KT 10SM -RA FEW018 BKN037 OVC050 09/07
 A2974 RMK AO2 P0000=

PAGM 260353Z AUTO 13016KT 10SM -RA FEW018 BKN027 OVC035 09/07
     A2974 RMK AO2 P0000=

METAR PAGM 260356Z AUTO 13016KT 10SM -RA FEW018 BKN027 OVC035 09/07
     A2974 RMK AO2 SLP077 P0000 T00890067=

METAR PAGM 260456Z AUTO 11012KT 10SM -RA BKN027 OVC033 08/07 A2972 RMK
     AO2 SLP071 P0000 T00830067=

PAGM 260509Z AUTO 11012G21KT 10SM -RA SCT027 OVC035 08/07 A2972
     RMK AO2 P0001=


NOAA's National Weather Service
Alaska Aviation Weather Unit
6930 Sand Lake Road
Anchorage, AK 99502-1845
Disclaimer
Credits
Glossary
Privacy Policy
About Us
Career Opportunities
Contact AAWU Internet Services Site last modified: April, 17th 2012